createdAt,value
2022-11-21T00:01:22.370Z,78.43
2022-11-21T00:03:50.626Z,69.80
2022-11-21T00:06:19.313Z,60.28
2022-11-21T00:08:47.758Z,83.65
2022-11-21T00:11:15.607Z,86.75
2022-11-21T00:13:44.160Z,83.47
2022-11-21T00:16:14.541Z,72.25
2022-11-21T00:18:44.229Z,101.78
2022-11-21T00:21:14.807Z,83.28
2022-11-21T00:23:42.872Z,90.35
2022-11-21T00:26:12.320Z,88.57
2022-11-21T00:28:40.285Z,61.95
2022-11-21T00:31:08.760Z,96.75
2022-11-21T00:33:37.316Z,109.35
2022-11-21T00:36:10.944Z,90.55
2022-11-21T00:38:38.857Z,77.65
2022-11-21T00:41:06.780Z,80.43
2022-11-21T00:43:35.043Z,87.85
2022-11-21T00:46:03.456Z,101.13
2022-11-21T00:48:31.459Z,111.70
2022-11-21T00:51:00.578Z,118.47
2022-11-21T00:53:30.370Z,95.38
2022-11-21T00:55:58.738Z,105.93
2022-11-21T00:58:27.371Z,59.97
2022-11-21T01:01:03.852Z,59.13
2022-11-21T01:03:33.863Z,52.72
2022-11-21T01:06:03.618Z,62.97
2022-11-21T01:08:32.824Z,58.22
2022-11-21T01:11:04.791Z,55.70
2022-11-21T01:13:32.669Z,28.25
2022-11-21T01:16:04.842Z,20.63
2022-11-21T01:18:32.631Z,48.30
2022-11-21T01:21:01.317Z,52.22
2022-11-21T01:23:29.360Z,60.28
2022-11-21T01:26:02.470Z,46.15
2022-11-21T01:28:30.275Z,48.53
2022-11-21T01:31:05.422Z,31.55
2022-11-21T01:33:33.264Z,34.53
2022-11-21T01:36:07.921Z,71.72
2022-11-21T01:38:35.880Z,64.35
2022-11-21T01:41:05.210Z,62.75
2022-11-21T01:43:33.107Z,42.90
2022-11-21T01:46:04.608Z,59.55
2022-11-21T01:48:39.635Z,73.28
2022-11-21T01:51:13.339Z,98.90
2022-11-21T01:53:44.399Z,113.82
2022-11-21T01:56:13.951Z,99.07
2022-11-21T01:58:43.863Z,88.45
2022-11-21T02:01:12.093Z,70.32
2022-11-21T02:03:42.215Z,71.05
2022-11-21T02:06:12.993Z,68.57
2022-11-21T02:08:43.380Z,87.32
2022-11-21T02:11:18.387Z,88.20
2022-11-21T02:13:46.667Z,100.55
2022-11-21T02:16:14.737Z,99.13
2022-11-21T02:18:42.899Z,75.60
2022-11-21T02:21:20.783Z,42.05
2022-11-21T02:24:00.094Z,50.33
2022-11-21T02:26:29.899Z,55.30
2022-11-21T02:28:58.050Z,52.85
2022-11-21T02:31:25.930Z,64.95
2022-11-21T02:33:53.822Z,68.40
2022-11-21T02:36:41.539Z,105.07
2022-11-21T02:39:13.055Z,94.90
2022-11-21T02:41:45.894Z,85.38
2022-11-21T02:44:25.447Z,73.20
2022-11-21T02:46:54.162Z,84.07
2022-11-21T02:49:31.481Z,82.22
2022-11-21T02:51:59.472Z,82.00
2022-11-21T02:54:27.374Z,92.45
2022-11-21T02:56:57.579Z,90.80
2022-11-21T02:59:25.458Z,99.95
2022-11-21T03:01:53.511Z,79.25
2022-11-21T03:04:21.436Z,71.57
2022-11-21T03:06:49.307Z,81.88
2022-11-21T03:09:17.557Z,90.75
2022-11-21T03:11:45.378Z,82.93
2022-11-21T03:14:14.551Z,75.53
2022-11-21T03:16:42.393Z,67.22
2022-11-21T03:19:10.264Z,69.60
2022-11-21T03:21:38.080Z,44.08
2022-11-21T03:24:06.867Z,40.28
2022-11-21T03:26:34.705Z,36.40
2022-11-21T03:29:02.836Z,34.30
2022-11-21T03:31:32.162Z,36.85
2022-11-21T03:34:00.051Z,46.90
2022-11-21T03:36:27.936Z,37.70
2022-11-21T03:38:56.707Z,36.50
2022-11-21T03:41:30.953Z,39.22
2022-11-21T03:43:59.718Z,28.33
2022-11-21T03:46:28.298Z,34.15
2022-11-21T03:48:57.872Z,41.97
2022-11-21T03:51:26.242Z,44.65
2022-11-21T03:53:54.422Z,50.92
2022-11-21T03:56:22.415Z,37.25
2022-11-21T03:58:50.282Z,46.80
2022-11-21T04:01:18.712Z,34.55
2022-11-21T04:03:47.287Z,43.03
2022-11-21T04:06:18.425Z,54.22
2022-11-21T04:08:46.809Z,55.20
2022-11-21T04:11:14.688Z,37.60
2022-11-21T04:13:42.833Z,40.40
2022-11-21T04:16:10.887Z,48.20
2022-11-21T04:18:38.913Z,36.72
2022-11-21T04:21:09.044Z,38.45
2022-11-21T04:23:38.253Z,34.35
2022-11-21T04:26:06.268Z,42.80
2022-11-21T04:28:34.094Z,34.08
2022-11-21T04:31:09.885Z,17.35
2022-11-21T04:33:38.538Z,22.77
2022-11-21T04:36:06.803Z,25.67
2022-11-21T04:38:34.803Z,23.60
2022-11-21T04:41:04.793Z,21.17
2022-11-21T04:43:32.598Z,33.90
2022-11-21T04:46:00.425Z,30.58
2022-11-21T04:48:28.442Z,33.15
2022-11-21T04:50:56.237Z,37.40
2022-11-21T04:53:24.019Z,35.72
2022-11-21T04:55:51.881Z,39.65
2022-11-21T04:58:21.451Z,31.02
2022-11-21T05:00:49.312Z,31.95
2022-11-21T05:03:17.307Z,26.88
2022-11-21T05:05:45.086Z,28.50
2022-11-21T05:08:13.250Z,28.75
2022-11-21T05:10:54.959Z,29.70
2022-11-21T05:13:24.198Z,53.15
2022-11-21T05:15:58.405Z,33.55
2022-11-21T05:18:26.424Z,23.30
2022-11-21T05:20:54.423Z,44.15
2022-11-21T05:23:22.275Z,26.50
2022-11-21T05:25:50.356Z,40.97
2022-11-21T05:28:18.154Z,37.05
2022-11-21T05:30:47.496Z,41.92
2022-11-21T05:33:15.257Z,52.38
2022-11-21T05:35:43.784Z,45.50
2022-11-21T05:38:12.147Z,35.80
2022-11-21T05:40:40.175Z,28.83
2022-11-21T05:43:25.491Z,27.65
2022-11-21T05:45:55.199Z,38.63
2022-11-21T05:48:23.230Z,31.17
2022-11-21T05:50:51.647Z,33.55
2022-11-21T05:53:20.048Z,22.92
2022-11-21T05:55:48.518Z,26.75
2022-11-21T05:58:16.496Z,33.22
2022-11-21T06:00:44.380Z,32.45
2022-11-21T06:03:28.165Z,30.30
2022-11-21T06:06:07.314Z,23.75
2022-11-21T06:08:37.240Z,22.55
2022-11-21T06:11:06.898Z,19.15
2022-11-21T06:13:35.418Z,22.02
2022-11-21T06:16:05.784Z,18.48
2022-11-21T06:18:36.773Z,21.48
2022-11-21T06:21:08.633Z,19.35
2022-11-21T06:23:37.955Z,27.02
2022-11-21T06:26:07.828Z,25.63
2022-11-21T06:28:40.337Z,35.25
2022-11-21T06:31:11.486Z,20.15
2022-11-21T06:33:42.557Z,39.95
2022-11-21T06:36:12.999Z,33.60
2022-11-21T06:38:41.254Z,40.47
2022-11-21T06:41:12.775Z,61.40
2022-11-21T06:43:41.034Z,41.35
2022-11-21T06:46:12.567Z,50.60
2022-11-21T06:48:43.004Z,47.55
2022-11-21T06:51:15.292Z,35.05
2022-11-21T06:53:43.293Z,35.42
2022-11-21T06:56:11.792Z,41.17
2022-11-21T06:58:40.151Z,34.33
2022-11-21T07:01:10.499Z,26.23
2022-11-21T07:03:38.793Z,28.83
2022-11-21T07:06:09.606Z,43.65
2022-11-21T07:08:37.673Z,39.97
2022-11-21T07:13:56.680Z,32.33
2022-11-21T07:16:26.491Z,25.70
2022-11-21T07:18:54.792Z,32.03
2022-11-21T07:21:24.326Z,27.88
2022-11-21T07:23:52.513Z,33.03
2022-11-21T07:26:20.500Z,22.67
2022-11-21T07:28:48.563Z,30.60
2022-11-21T07:31:16.704Z,29.08
2022-11-21T07:33:45.833Z,38.63
2022-11-21T07:36:14.534Z,39.97
2022-11-21T07:38:44.113Z,22.95
2022-11-21T07:41:14.114Z,20.05
2022-11-21T07:43:42.265Z,17.80
2022-11-21T07:46:10.434Z,19.73
2022-11-21T07:48:39.052Z,27.40
2022-11-21T07:51:07.352Z,40.17
2022-11-21T07:53:35.439Z,35.22
2022-11-21T07:56:05.171Z,34.05
2022-11-21T07:58:39.100Z,39.22
2022-11-21T08:01:09.048Z,49.58
2022-11-21T08:03:37.155Z,48.00
2022-11-21T08:06:06.209Z,37.75
2022-11-21T08:08:34.260Z,31.90
2022-11-21T08:11:07.536Z,18.50
2022-11-21T08:13:37.857Z,33.50
2022-11-21T08:16:06.749Z,23.13
2022-11-21T08:18:35.274Z,31.35
2022-11-21T08:21:04.124Z,30.95
2022-11-21T08:23:32.839Z,26.20
2022-11-21T08:26:00.954Z,34.22
2022-11-21T08:28:30.405Z,35.55
2022-11-21T08:30:58.570Z,31.98
2022-11-21T08:33:26.670Z,41.95
2022-11-21T08:35:54.771Z,33.97
2022-11-21T08:38:22.963Z,26.75
2022-11-21T08:41:17.224Z,41.53
2022-11-21T08:43:47.340Z,34.45
2022-11-21T08:46:15.735Z,43.47
2022-11-21T08:48:43.635Z,34.47
2022-11-21T08:51:11.676Z,47.53
2022-11-21T08:53:39.752Z,32.55
2022-11-21T08:56:08.247Z,18.25
2022-11-21T08:58:36.314Z,28.88
2022-11-21T09:01:05.780Z,29.70
2022-11-21T09:03:34.029Z,37.55
2022-11-21T09:06:02.578Z,22.60
2022-11-21T09:08:31.350Z,32.60
2022-11-21T09:11:00.389Z,30.42
2022-11-21T09:13:29.037Z,39.70
2022-11-21T09:16:20.231Z,40.33
2022-11-21T09:18:53.391Z,21.20
2022-11-21T09:21:22.398Z,35.03
2022-11-21T09:23:50.510Z,47.17
2022-11-21T09:26:18.615Z,49.55
2022-11-21T09:28:47.082Z,41.05
2022-11-21T09:31:15.322Z,30.75
2022-11-21T09:33:43.391Z,24.02
2022-11-21T09:36:12.915Z,26.65
2022-11-21T09:38:40.867Z,22.15
2022-11-21T09:41:37.224Z,28.88
2022-11-21T09:44:16.353Z,18.63
2022-11-21T09:46:48.799Z,22.50
2022-11-21T09:49:18.720Z,32.88
2022-11-21T09:51:48.225Z,16.58
2022-11-21T09:54:21.106Z,19.52
2022-11-21T09:56:50.186Z,16.95
2022-11-21T09:59:33.755Z,13.27
2022-11-21T10:02:02.427Z,26.38
2022-11-21T10:04:31.371Z,20.17
2022-11-21T10:07:06.137Z,17.85
2022-11-21T10:09:48.219Z,27.83
2022-11-21T10:12:39.772Z,28.83
2022-11-21T10:15:32.108Z,32.63
2022-11-21T10:18:19.244Z,22.80
2022-11-21T10:20:55.840Z,27.42
2022-11-21T10:23:38.515Z,30.40
2022-11-21T10:26:17.440Z,23.27
2022-11-21T10:28:53.524Z,26.33
2022-11-21T10:31:23.133Z,25.20
2022-11-21T10:33:53.427Z,14.25
2022-11-21T10:36:28.550Z,23.23
2022-11-21T10:39:01.827Z,16.55
2022-11-21T10:41:42.001Z,28.38
2022-11-21T10:44:36.307Z,21.08
2022-11-21T10:47:14.138Z,19.70
2022-11-21T10:49:43.797Z,23.50
2022-11-21T10:52:16.488Z,23.50
2022-11-21T10:55:13.726Z,22.77
2022-11-21T10:57:48.052Z,26.48
2022-11-21T11:00:22.437Z,25.45
2022-11-21T11:03:07.469Z,20.45
2022-11-21T11:05:37.225Z,21.40
2022-11-21T11:08:08.524Z,20.70
2022-11-21T11:10:39.786Z,27.70
2022-11-21T11:13:49.879Z,25.00
2022-11-21T11:16:21.398Z,29.38
2022-11-21T11:18:56.390Z,40.72
2022-11-21T11:21:26.334Z,42.97
2022-11-21T11:23:55.756Z,37.53
2022-11-21T11:26:28.836Z,38.75
2022-11-21T11:29:10.334Z,27.90
2022-11-21T11:31:43.065Z,39.90
2022-11-21T11:34:15.197Z,43.05
2022-11-21T11:37:12.142Z,41.08
2022-11-21T11:39:42.440Z,34.95
2022-11-21T11:43:00.087Z,37.22
2022-11-21T11:45:58.024Z,26.23
2022-11-21T11:48:27.301Z,53.75
2022-11-21T11:51:01.201Z,30.23
2022-11-21T11:53:35.126Z,28.08
2022-11-21T11:56:09.278Z,35.15
2022-11-21T11:58:43.891Z,33.63
2022-11-21T12:01:14.977Z,34.00
2022-11-21T12:03:52.010Z,35.95
2022-11-21T12:06:57.331Z,38.03
2022-11-21T12:09:31.763Z,36.47
2022-11-21T12:12:10.121Z,45.83
2022-11-21T12:15:07.113Z,36.55
2022-11-21T12:17:41.255Z,37.92
2022-11-21T12:20:17.051Z,35.05
2022-11-21T12:22:47.596Z,35.20
2022-11-21T12:25:16.191Z,30.85
2022-11-21T12:27:47.183Z,38.78
2022-11-21T12:30:51.184Z,39.67
2022-11-21T12:33:23.302Z,41.22
2022-11-21T12:36:19.045Z,43.47
2022-11-21T12:39:14.966Z,27.85
2022-11-21T12:42:09.476Z,32.63
2022-11-21T12:44:54.060Z,34.55
2022-11-21T12:48:09.033Z,33.95
2022-11-21T12:51:01.820Z,38.08
2022-11-21T12:53:58.044Z,21.88
2022-11-21T12:56:34.147Z,17.08
2022-11-21T12:59:04.556Z,21.25
2022-11-21T13:01:40.496Z,20.02
2022-11-21T13:04:16.650Z,20.42
2022-11-21T13:06:48.269Z,16.20
2022-11-21T13:09:20.195Z,29.45
2022-11-21T13:12:00.897Z,23.80
2022-11-21T13:14:35.304Z,20.27
2022-11-21T13:17:16.365Z,26.27
2022-11-21T13:19:53.757Z,18.45
2022-11-21T13:22:50.897Z,24.85
2022-11-21T13:25:40.837Z,20.85
2022-11-21T13:28:51.717Z,35.40
2022-11-21T13:32:46.928Z,21.95
2022-11-21T13:36:11.700Z,18.65
2022-11-21T13:39:33.622Z,39.30
2022-11-21T13:43:31.503Z,41.85
2022-11-21T13:49:47.091Z,33.13
2022-11-21T13:52:42.398Z,27.33
2022-11-21T13:55:34.752Z,38.00
2022-11-21T13:58:14.795Z,31.20
2022-11-21T14:01:26.791Z,28.58
2022-11-21T14:04:41.956Z,31.00
2022-11-21T14:07:27.437Z,30.95
2022-11-21T14:09:58.465Z,25.55
2022-11-21T14:12:33.857Z,29.92
2022-11-21T14:15:22.749Z,22.55
2022-11-21T14:17:52.388Z,29.67
2022-11-21T14:20:23.523Z,26.13
2022-11-21T14:22:59.145Z,39.40
2022-11-21T14:25:35.109Z,31.27
2022-11-21T14:28:06.494Z,37.95
2022-11-21T14:30:37.682Z,38.55
2022-11-21T14:33:39.462Z,46.22
2022-11-21T14:36:10.937Z,36.42
2022-11-21T14:38:45.294Z,37.40
2022-11-21T14:41:31.455Z,35.30
2022-11-21T14:44:20.803Z,28.65
2022-11-21T14:46:49.575Z,52.53
2022-11-21T14:49:26.747Z,44.95
2022-11-21T14:52:02.407Z,46.33
2022-11-21T14:54:35.126Z,47.75
2022-11-21T14:57:07.489Z,37.97
2022-11-21T14:59:41.032Z,30.92
2022-11-21T15:02:14.046Z,21.92
2022-11-21T15:04:44.543Z,26.35
2022-11-21T15:07:28.390Z,49.63
2022-11-21T15:12:58.086Z,50.78
2022-11-21T15:15:31.859Z,34.72
2022-11-21T15:18:26.314Z,48.53
2022-11-21T15:20:53.197Z,58.95
2022-11-21T15:23:29.254Z,47.60
2022-11-21T15:26:01.449Z,43.45
2022-11-21T15:28:30.704Z,39.70
2022-11-21T15:31:18.992Z,47.08
2022-11-21T15:37:04.852Z,32.80
2022-11-21T15:39:34.608Z,39.08
2022-11-21T15:42:45.150Z,30.83
2022-11-21T15:45:27.316Z,29.13
2022-11-21T15:47:56.867Z,37.03
2022-11-21T15:50:26.433Z,51.60
2022-11-21T15:52:55.128Z,33.05
2022-11-21T15:55:26.166Z,39.45
2022-11-21T15:57:13.726Z,41.63
2022-11-21T15:57:55.799Z,47.45
2022-11-21T16:00:25.363Z,34.85
2022-11-21T16:02:53.645Z,35.95
2022-11-21T16:05:21.603Z,36.40
2022-11-21T16:07:49.545Z,19.95
2022-11-21T16:10:24.430Z,30.27
2022-11-21T16:12:55.627Z,45.58
2022-11-21T16:15:24.958Z,29.00
2022-11-21T16:17:53.162Z,34.00
2022-11-21T16:20:21.071Z,29.95
2022-11-21T16:22:49.995Z,28.00
2022-11-21T16:25:18.168Z,28.08
2022-11-21T16:27:47.156Z,39.00
2022-11-21T16:30:15.891Z,40.92
2022-11-21T16:32:45.455Z,17.80
2022-11-21T16:35:13.296Z,26.17
2022-11-21T16:37:41.104Z,39.65
2022-11-21T16:40:10.845Z,20.77
2022-11-21T16:42:38.743Z,35.20
2022-11-21T16:45:07.246Z,28.05
2022-11-21T16:47:37.931Z,22.95
2022-11-21T16:50:07.979Z,25.38
2022-11-21T16:52:39.177Z,33.40
2022-11-21T16:55:07.716Z,31.27
2022-11-21T16:57:36.740Z,44.88
2022-11-21T17:00:05.764Z,31.25
2022-11-21T17:02:33.791Z,46.95
2022-11-21T17:05:01.649Z,58.75
2022-11-21T17:07:31.929Z,57.30
2022-11-21T17:10:00.021Z,69.75
2022-11-21T17:12:28.169Z,30.70
2022-11-21T17:14:56.051Z,42.78
2022-11-21T17:17:24.064Z,31.13
2022-11-21T17:19:54.524Z,44.80
2022-11-21T17:22:24.847Z,38.70
2022-11-21T17:24:54.796Z,39.50
2022-11-21T17:27:23.833Z,38.40
2022-11-21T17:29:51.764Z,54.40
2022-11-21T17:32:19.830Z,45.60
2022-11-21T17:34:47.789Z,50.50
2022-11-21T17:37:15.676Z,23.40
2022-11-21T17:39:43.502Z,38.30
2022-11-21T17:42:12.883Z,67.57
2022-11-21T17:44:40.739Z,52.42
2022-11-21T17:47:08.868Z,31.80
2022-11-21T17:49:38.212Z,47.20
2022-11-21T17:52:07.673Z,35.22
2022-11-21T17:54:35.661Z,39.35
2022-11-21T17:57:03.592Z,24.95
2022-11-21T17:59:34.809Z,49.42
2022-11-21T18:02:03.214Z,36.58
2022-11-21T18:04:31.516Z,44.63
2022-11-21T18:06:59.673Z,41.05
2022-11-21T18:09:28.608Z,38.63
2022-11-21T18:11:57.804Z,40.45
2022-11-21T18:14:26.502Z,28.02
2022-11-21T18:16:56.556Z,41.60
2022-11-21T18:19:24.485Z,31.48
2022-11-21T18:21:52.957Z,38.78
2022-11-21T18:24:21.375Z,32.15
2022-11-21T18:26:49.251Z,26.67
2022-11-21T18:32:07.491Z,32.47
2022-11-21T18:34:35.557Z,44.05
2022-11-21T18:37:03.516Z,30.55
2022-11-21T18:39:31.780Z,37.72
2022-11-21T18:42:00.034Z,38.83
2022-11-21T18:44:28.045Z,31.17
2022-11-21T18:46:55.986Z,46.90
2022-11-21T18:49:25.794Z,44.15
2022-11-21T18:51:53.879Z,39.55
2022-11-21T18:54:22.091Z,46.75
2022-11-21T18:56:50.092Z,46.13
2022-11-21T18:59:18.032Z,42.17
2022-11-21T19:01:46.278Z,32.58
2022-11-21T19:04:14.568Z,36.88
2022-11-21T19:06:44.109Z,43.83
2022-11-21T19:09:12.520Z,36.95
2022-11-21T19:11:40.936Z,33.83
2022-11-21T19:14:09.089Z,37.05
2022-11-21T19:16:37.218Z,38.85
2022-11-21T19:21:57.486Z,46.88
2022-11-21T19:24:25.762Z,40.10
2022-11-21T19:26:53.753Z,32.33
2022-11-21T19:29:21.721Z,39.00
2022-11-21T19:31:49.686Z,39.50
2022-11-21T19:34:17.895Z,42.28
2022-11-21T19:36:46.612Z,38.22
2022-11-21T19:39:17.581Z,33.75
2022-11-21T19:41:45.603Z,19.17
2022-11-21T19:44:13.551Z,28.20
2022-11-21T19:46:41.581Z,24.95
2022-11-21T19:49:12.185Z,38.38
2022-11-21T19:51:41.992Z,23.92
2022-11-21T19:54:12.668Z,26.67
2022-11-21T19:56:42.281Z,28.98
2022-11-21T19:59:13.617Z,23.90
2022-11-21T20:01:42.882Z,24.23
2022-11-21T20:04:12.896Z,24.75
2022-11-21T20:06:42.597Z,22.40
2022-11-21T20:09:12.861Z,29.85
2022-11-21T20:11:43.804Z,20.45
2022-11-21T20:14:21.331Z,29.42
2022-11-21T20:16:53.274Z,33.03
2022-11-21T20:19:25.512Z,56.38
2022-11-21T20:21:54.918Z,37.17
2022-11-21T20:24:22.911Z,23.63
2022-11-21T20:26:54.425Z,27.77
2022-11-21T20:29:24.671Z,24.70
2022-11-21T20:31:52.577Z,30.52
2022-11-21T20:34:20.468Z,26.95
2022-11-21T20:36:48.867Z,30.52
2022-11-21T20:39:18.100Z,34.03
2022-11-21T20:41:47.190Z,29.38
2022-11-21T20:47:07.662Z,25.88
2022-11-21T20:49:35.732Z,40.05
2022-11-21T20:54:51.939Z,42.47
2022-11-21T20:57:19.922Z,52.20
2022-11-21T20:59:49.173Z,50.15
2022-11-21T21:02:17.045Z,41.63
2022-11-21T21:04:44.960Z,40.15
2022-11-21T21:07:13.077Z,36.47
2022-11-21T21:09:41.185Z,44.72
2022-11-21T21:12:09.775Z,53.10
2022-11-21T21:14:37.649Z,52.17
2022-11-21T21:17:08.304Z,47.40
2022-11-21T21:19:36.175Z,58.78
2022-11-21T21:22:05.092Z,81.00
2022-11-21T21:24:35.833Z,77.60
2022-11-21T21:27:03.659Z,58.45
2022-11-21T21:29:31.853Z,50.42
2022-11-21T21:31:59.892Z,45.03
2022-11-21T21:34:29.439Z,54.08
2022-11-21T21:36:57.545Z,42.60
2022-11-21T21:39:25.582Z,38.15
2022-11-21T21:41:53.443Z,35.92
2022-11-21T21:44:21.524Z,43.85
2022-11-21T21:46:49.364Z,31.83
2022-11-21T21:49:17.389Z,47.00
2022-11-21T21:51:46.584Z,36.88
2022-11-21T21:54:17.763Z,42.85
2022-11-21T21:56:46.803Z,30.25
2022-11-21T21:59:15.143Z,33.90
2022-11-21T22:01:43.794Z,44.80
2022-11-21T22:04:13.423Z,41.55
2022-11-21T22:06:42.079Z,39.08
2022-11-21T22:09:11.697Z,31.65
2022-11-21T22:11:40.178Z,26.83
2022-11-21T22:14:11.644Z,35.28
2022-11-21T22:16:39.889Z,29.20
2022-11-21T22:19:08.377Z,30.05
2022-11-21T22:21:38.106Z,28.08
2022-11-21T22:24:27.573Z,34.05
2022-11-21T22:26:57.267Z,27.15
2022-11-21T22:29:25.124Z,39.50
2022-11-21T22:31:53.341Z,44.05
2022-11-21T22:34:21.925Z,36.85
2022-11-21T22:36:49.942Z,33.63
2022-11-21T22:39:18.060Z,44.85
2022-11-21T22:41:46.008Z,39.00
2022-11-21T22:44:15.336Z,48.65
2022-11-21T22:46:43.379Z,42.60
2022-11-21T22:49:11.263Z,24.30
2022-11-21T22:51:39.092Z,19.45
2022-11-21T22:54:07.232Z,21.60
2022-11-21T22:56:35.130Z,22.02
2022-11-21T22:59:03.000Z,24.02
2022-11-21T23:01:34.112Z,21.10
2022-11-21T23:04:02.145Z,30.38
2022-11-21T23:06:30.086Z,24.20
2022-11-21T23:08:58.670Z,12.52
2022-11-21T23:11:28.209Z,22.65
2022-11-21T23:13:57.451Z,17.20
2022-11-21T23:16:25.746Z,18.95
2022-11-21T23:18:56.808Z,23.75
2022-11-21T23:21:24.848Z,23.58
2022-11-21T23:23:52.754Z,17.60
2022-11-21T23:26:20.930Z,21.48
2022-11-21T23:28:48.947Z,25.27
2022-11-21T23:31:17.283Z,25.63
2022-11-21T23:33:45.226Z,23.92
2022-11-21T23:36:14.558Z,27.05
2022-11-21T23:38:42.756Z,17.50
2022-11-21T23:41:10.806Z,20.73
2022-11-21T23:43:38.749Z,23.35
2022-11-21T23:46:06.884Z,21.08
2022-11-21T23:48:34.837Z,29.58
2022-11-21T23:51:02.776Z,22.33
2022-11-21T23:53:32.340Z,19.02
2022-11-21T23:56:00.247Z,18.00
2022-11-21T23:58:28.296Z,17.95
